createdAt,value
2023-05-22T00:00:03.853Z,155.96
2023-05-22T00:01:03.913Z,157.00
2023-05-22T00:02:03.977Z,157.73
2023-05-22T00:03:04.091Z,161.76
2023-05-22T00:04:04.075Z,165.14
2023-05-22T00:05:04.251Z,164.80
2023-05-22T00:06:04.167Z,167.39
2023-05-22T00:07:04.222Z,168.49
2023-05-22T00:08:04.269Z,173.30
2023-05-22T00:09:04.328Z,173.94
2023-05-22T00:10:04.375Z,170.49
2023-05-22T00:11:04.425Z,173.15
2023-05-22T00:12:04.463Z,170.80
2023-05-22T00:13:04.532Z,171.08
2023-05-22T00:14:04.596Z,172.87
2023-05-22T00:15:04.636Z,173.19
2023-05-22T00:16:04.698Z,172.79
2023-05-22T00:17:04.811Z,169.74
2023-05-22T00:18:04.816Z,173.37
2023-05-22T00:19:04.903Z,175.14
2023-05-22T00:20:04.937Z,174.24
2023-05-22T00:21:05.053Z,175.39
2023-05-22T00:22:05.031Z,176.39
2023-05-22T00:23:05.079Z,173.96
2023-05-22T00:24:05.135Z,176.06
2023-05-22T00:25:05.191Z,178.08
2023-05-22T00:26:05.266Z,176.53
2023-05-22T00:27:05.325Z,178.92
2023-05-22T00:28:05.371Z,183.10
2023-05-22T00:29:05.446Z,181.92
2023-05-22T00:30:05.499Z,178.66
2023-05-22T00:31:05.563Z,183.30
2023-05-22T00:32:05.708Z,180.87
2023-05-22T00:33:05.714Z,183.17
2023-05-22T00:34:05.738Z,178.59
2023-05-22T00:35:05.794Z,179.33
2023-05-22T00:36:05.832Z,176.90
2023-05-22T00:37:05.904Z,175.55
2023-05-22T00:38:05.945Z,175.78
2023-05-22T00:39:06.050Z,173.86
2023-05-22T00:40:06.071Z,174.14
2023-05-22T00:41:06.144Z,176.09
2023-05-22T00:42:06.215Z,176.45
2023-05-22T00:43:06.241Z,178.35
2023-05-22T00:44:06.310Z,181.60
2023-05-22T00:45:06.388Z,180.06
2023-05-22T00:46:06.433Z,178.77
2023-05-22T00:47:06.471Z,176.20
2023-05-22T00:48:06.544Z,173.52
2023-05-22T00:49:06.575Z,171.70
2023-05-22T00:50:06.620Z,170.30
2023-05-22T00:51:06.683Z,170.98
2023-05-22T00:52:06.765Z,172.91
2023-05-22T00:53:06.776Z,175.16
2023-05-22T00:54:06.850Z,174.77
2023-05-22T00:55:06.893Z,178.40
2023-05-22T00:56:06.954Z,182.83
2023-05-22T00:57:07.052Z,184.35
2023-05-22T00:58:07.083Z,184.35
2023-05-22T00:59:07.124Z,181.29
2023-05-22T01:00:07.196Z,188.02
2023-05-22T01:01:07.256Z,190.06
2023-05-22T01:02:07.440Z,191.36
2023-05-22T01:03:07.441Z,192.74
2023-05-22T01:04:07.466Z,191.93
2023-05-22T01:05:07.499Z,188.39
2023-05-22T01:06:07.545Z,186.86
2023-05-22T01:07:07.635Z,183.98
2023-05-22T01:08:07.655Z,184.51
2023-05-22T01:09:07.712Z,187.14
2023-05-22T01:10:07.792Z,187.79
2023-05-22T01:11:07.865Z,193.37
2023-05-22T01:12:07.898Z,196.72
2023-05-22T01:13:07.956Z,196.94
2023-05-22T01:14:08.043Z,196.60
2023-05-22T01:15:08.080Z,197.54
2023-05-22T01:16:08.201Z,195.76
2023-05-22T01:17:08.204Z,197.06
2023-05-22T01:18:08.334Z,199.84
2023-05-22T01:19:08.356Z,197.16
2023-05-22T01:20:08.385Z,198.63
2023-05-22T01:21:08.432Z,198.44
2023-05-22T01:22:08.516Z,204.63
2023-05-22T01:23:08.564Z,203.10
2023-05-22T01:24:08.604Z,203.72
2023-05-22T01:25:08.680Z,202.23
2023-05-22T01:26:08.736Z,200.11
2023-05-22T01:27:08.805Z,198.64
2023-05-22T01:28:08.855Z,202.91
2023-05-22T01:29:08.929Z,202.75
2023-05-22T01:30:08.988Z,201.53
2023-05-22T01:31:09.052Z,204.98
2023-05-22T01:32:09.105Z,200.65
2023-05-22T01:33:09.262Z,206.06
2023-05-22T01:34:09.227Z,208.69
2023-05-22T01:35:09.310Z,213.06
2023-05-22T01:36:09.364Z,217.02
2023-05-22T01:37:09.410Z,213.70
2023-05-22T01:38:09.472Z,213.76
2023-05-22T01:39:09.555Z,215.84
2023-05-22T01:40:09.616Z,217.38
2023-05-22T01:41:09.660Z,217.88
2023-05-22T01:42:09.722Z,218.80
2023-05-22T01:43:09.799Z,220.78
2023-05-22T01:44:09.870Z,218.89
2023-05-22T01:45:09.916Z,217.66
2023-05-22T01:46:10.091Z,215.43
2023-05-22T01:47:10.096Z,216.69
2023-05-22T01:48:10.237Z,219.45
2023-05-22T01:49:10.169Z,216.34
2023-05-22T01:50:10.217Z,216.49
2023-05-22T01:51:10.276Z,216.73
2023-05-22T01:52:10.360Z,216.34
2023-05-22T01:53:10.409Z,215.22
2023-05-22T01:54:10.491Z,218.42
2023-05-22T01:55:10.535Z,216.09
2023-05-22T01:56:10.614Z,211.79
2023-05-22T01:57:10.671Z,211.86
2023-05-22T01:58:10.756Z,209.69
2023-05-22T01:59:10.785Z,210.37
2023-05-22T02:00:10.842Z,207.11
2023-05-22T02:01:11.130Z,204.34
2023-05-22T02:02:11.052Z,206.66
2023-05-22T02:03:11.097Z,203.45
2023-05-22T02:04:11.100Z,207.50
2023-05-22T02:05:11.150Z,207.85
2023-05-22T02:06:11.281Z,212.36
2023-05-22T02:07:12.243Z,210.17
2023-05-22T02:08:11.330Z,210.96
2023-05-22T02:09:11.411Z,212.29
2023-05-22T02:10:11.498Z,207.09
2023-05-22T02:11:11.499Z,206.65
2023-05-22T02:12:11.574Z,211.40
2023-05-22T02:13:11.618Z,214.75
2023-05-22T02:14:11.695Z,217.95
2023-05-22T02:15:11.740Z,217.53
2023-05-22T02:16:11.840Z,218.95
2023-05-22T02:17:11.858Z,221.17
2023-05-22T02:18:11.976Z,221.08
2023-05-22T02:19:11.994Z,219.58
2023-05-22T02:20:12.022Z,215.44
2023-05-22T02:21:12.055Z,219.52
2023-05-22T02:22:12.076Z,217.18
2023-05-22T02:23:12.132Z,217.08
2023-05-22T02:24:12.167Z,215.19
2023-05-22T02:25:12.204Z,211.07
2023-05-22T02:26:12.282Z,214.29
2023-05-22T02:27:12.322Z,212.29
2023-05-22T02:28:12.378Z,215.75
2023-05-22T02:29:12.424Z,215.52
2023-05-22T02:30:12.496Z,214.81
2023-05-22T02:31:12.523Z,219.23
2023-05-22T02:32:12.571Z,221.21
2023-05-22T02:33:12.618Z,221.76
2023-05-22T02:34:12.655Z,225.44
2023-05-22T02:35:12.722Z,226.69
2023-05-22T02:36:12.746Z,229.52
2023-05-22T02:37:12.827Z,232.61
2023-05-22T02:38:12.943Z,231.76
2023-05-22T02:39:12.901Z,231.59
2023-05-22T02:40:12.980Z,229.79
2023-05-22T02:41:13.016Z,234.30
2023-05-22T02:42:13.088Z,235.03
2023-05-22T02:43:13.154Z,239.75
2023-05-22T02:44:13.188Z,239.68
2023-05-22T02:45:13.220Z,239.91
2023-05-22T02:46:13.328Z,241.48
2023-05-22T02:47:13.328Z,242.68
2023-05-22T02:48:13.421Z,239.22
2023-05-22T02:49:13.438Z,239.10
2023-05-22T02:50:13.479Z,240.71
2023-05-22T02:51:13.505Z,239.11
2023-05-22T02:52:13.540Z,238.62
2023-05-22T02:53:13.587Z,241.49
2023-05-22T02:54:13.592Z,238.21
2023-05-22T02:55:13.663Z,242.65
2023-05-22T02:56:13.698Z,240.80
2023-05-22T02:57:13.748Z,245.62
2023-05-22T02:58:13.789Z,245.94
2023-05-22T02:59:13.843Z,245.36
2023-05-22T03:00:13.903Z,246.22
2023-05-22T03:01:14.005Z,247.01
2023-05-22T03:02:13.975Z,248.01
2023-05-22T03:03:14.136Z,249.58
2023-05-22T03:04:14.123Z,249.22
2023-05-22T03:05:14.114Z,247.54
2023-05-22T03:06:14.143Z,248.51
2023-05-22T03:07:14.182Z,249.56
2023-05-22T03:08:14.214Z,246.04
2023-05-22T03:09:14.247Z,245.65
2023-05-22T03:10:14.302Z,244.29
2023-05-22T03:11:14.313Z,242.39
2023-05-22T03:12:14.355Z,239.67
2023-05-22T03:13:14.373Z,239.71
2023-05-22T03:14:14.396Z,236.30
2023-05-22T03:15:14.414Z,234.54
2023-05-22T03:16:14.454Z,230.29
2023-05-22T03:17:14.448Z,227.74
2023-05-22T03:18:14.466Z,226.66
2023-05-22T03:19:14.515Z,227.94
2023-05-22T03:20:14.521Z,226.74
2023-05-22T03:21:14.513Z,226.69
2023-05-22T03:22:14.550Z,224.55
2023-05-22T03:23:14.575Z,224.46
2023-05-22T03:24:14.571Z,228.36
2023-05-22T03:25:14.603Z,230.71
2023-05-22T03:26:14.641Z,233.41
2023-05-22T03:27:14.681Z,237.83
2023-05-22T03:28:14.690Z,239.82
2023-05-22T03:29:14.738Z,242.84
2023-05-22T03:30:14.762Z,249.33
2023-05-22T03:31:14.746Z,246.59
2023-05-22T03:32:14.755Z,247.87
2023-05-22T03:33:14.790Z,249.39
2023-05-22T03:34:14.813Z,245.53
2023-05-22T03:35:14.814Z,244.91
2023-05-22T03:36:14.836Z,245.68
2023-05-22T03:37:14.842Z,244.90
2023-05-22T03:38:14.922Z,247.03
2023-05-22T03:39:14.898Z,248.56
2023-05-22T03:40:14.958Z,245.67
2023-05-22T03:41:14.954Z,245.52
2023-05-22T03:42:14.963Z,246.73
2023-05-22T03:43:14.979Z,249.47
2023-05-22T03:44:14.950Z,248.14
2023-05-22T03:45:14.966Z,247.33
2023-05-22T03:46:14.994Z,250.00
2023-05-22T03:47:14.973Z,250.30
2023-05-22T03:48:14.994Z,250.04
2023-05-22T03:49:15.072Z,250.00
2023-05-22T03:50:14.977Z,248.67
2023-05-22T03:51:14.993Z,248.94
2023-05-22T03:52:15.003Z,247.43
2023-05-22T03:53:14.979Z,244.13
2023-05-22T03:54:14.977Z,243.98
2023-05-22T03:55:14.950Z,244.20
2023-05-22T03:56:14.977Z,243.29
2023-05-22T03:57:14.975Z,245.38
2023-05-22T03:58:14.994Z,249.53
2023-05-22T03:59:14.991Z,248.84
2023-05-22T04:00:15.024Z,249.10
2023-05-22T04:01:15.030Z,246.37
2023-05-22T04:02:15.100Z,247.66
2023-05-22T04:03:15.282Z,247.20
2023-05-22T04:04:15.100Z,246.95
2023-05-22T04:05:15.136Z,245.41
2023-05-22T04:06:15.160Z,243.28
2023-05-22T04:07:15.206Z,240.28
2023-05-22T04:08:15.238Z,236.21
2023-05-22T04:09:15.248Z,240.24
2023-05-22T04:10:15.290Z,241.46
2023-05-22T04:11:15.312Z,240.78
2023-05-22T04:12:15.344Z,237.77
2023-05-22T04:13:15.344Z,236.74
2023-05-22T04:14:15.372Z,239.07
2023-05-22T04:15:15.392Z,238.70
2023-05-22T04:16:15.443Z,241.44
2023-05-22T04:17:15.420Z,242.58
2023-05-22T04:18:15.445Z,242.97
2023-05-22T04:19:15.492Z,243.97
2023-05-22T04:20:15.494Z,244.56
2023-05-22T04:21:15.524Z,244.58
2023-05-22T04:22:15.547Z,245.29
2023-05-22T04:23:15.606Z,245.44
2023-05-22T04:24:15.653Z,248.94
2023-05-22T04:25:15.692Z,246.78
2023-05-22T04:26:15.727Z,248.53
2023-05-22T04:27:15.736Z,245.54
2023-05-22T04:28:15.746Z,245.24
2023-05-22T04:29:15.770Z,237.85
2023-05-22T04:30:15.783Z,229.18
2023-05-22T04:31:15.850Z,229.50
2023-05-22T04:32:15.865Z,224.59
2023-05-22T04:33:15.948Z,225.37
2023-05-22T04:34:15.889Z,233.37
2023-05-22T04:35:15.909Z,239.98
2023-05-22T04:36:15.972Z,243.38
2023-05-22T04:37:16.054Z,247.52
2023-05-22T04:38:16.072Z,249.35
2023-05-22T04:39:16.121Z,249.24
2023-05-22T04:40:16.144Z,248.98
2023-05-22T04:41:16.192Z,249.17
2023-05-22T04:42:16.315Z,248.13
2023-05-22T04:43:16.276Z,243.90
2023-05-22T04:44:16.319Z,240.85
2023-05-22T04:45:16.378Z,241.57
2023-05-22T04:46:16.477Z,239.46
2023-05-22T04:47:16.480Z,237.64
2023-05-22T04:48:16.525Z,241.06
2023-05-22T04:49:16.544Z,242.20
2023-05-22T04:50:16.580Z,244.37
2023-05-22T04:51:16.640Z,244.51
2023-05-22T04:52:16.684Z,247.46
2023-05-22T04:53:16.802Z,246.43
2023-05-22T04:54:16.843Z,244.04
2023-05-22T04:55:16.900Z,241.58
2023-05-22T04:56:27.870Z,242.61
2023-05-22T04:57:17.943Z,242.67
2023-05-22T04:58:16.934Z,242.16
2023-05-22T04:59:16.947Z,238.05
2023-05-22T05:00:17.033Z,241.76
2023-05-22T05:01:16.960Z,247.02
2023-05-22T05:02:16.920Z,247.08
2023-05-22T05:03:17.012Z,249.07
2023-05-22T05:04:16.888Z,248.55
2023-05-22T05:05:16.891Z,250.00
2023-05-22T05:06:16.914Z,248.05
2023-05-22T05:07:16.979Z,249.29
2023-05-22T05:08:17.022Z,249.99
2023-05-22T05:09:17.059Z,250.00
2023-05-22T05:10:17.107Z,248.39
2023-05-22T05:11:17.143Z,250.22
2023-05-22T05:12:17.189Z,250.07
2023-05-22T05:13:17.220Z,249.36
2023-05-22T05:14:17.250Z,248.65
2023-05-22T05:15:17.290Z,248.70
2023-05-22T05:16:17.359Z,250.00
2023-05-22T05:17:17.470Z,248.76
2023-05-22T05:18:17.445Z,250.00
2023-05-22T05:19:17.450Z,249.41
2023-05-22T05:20:17.438Z,250.07
2023-05-22T05:21:17.506Z,239.79
2023-05-22T05:22:17.530Z,236.86
2023-05-22T05:23:17.552Z,241.13
2023-05-22T05:24:17.580Z,249.37
2023-05-22T05:25:17.587Z,248.64
2023-05-22T05:26:17.630Z,249.60
2023-05-22T05:27:17.943Z,251.14
2023-05-22T05:28:17.669Z,250.00
2023-05-22T05:29:17.747Z,250.00
2023-05-22T05:30:20.325Z,250.14
2023-05-22T05:31:17.772Z,250.00
2023-05-22T05:32:17.867Z,249.95
2023-05-22T05:33:17.736Z,250.30
2023-05-22T05:34:17.718Z,250.00
2023-05-22T05:35:17.741Z,250.00
2023-05-22T05:36:17.713Z,249.49
2023-05-22T05:37:17.748Z,250.00
2023-05-22T05:38:17.712Z,249.05
2023-05-22T05:39:17.721Z,250.00
2023-05-22T05:40:17.703Z,250.00
2023-05-22T05:41:17.686Z,248.61
2023-05-22T05:42:17.691Z,249.00
2023-05-22T05:43:17.683Z,249.84
2023-05-22T05:44:17.743Z,249.79
2023-05-22T05:45:17.672Z,249.47
2023-05-22T05:46:17.725Z,249.57
2023-05-22T05:47:17.646Z,249.79
2023-05-22T05:48:17.650Z,249.19
2023-05-22T05:49:17.631Z,247.69
2023-05-22T05:50:17.650Z,246.74
2023-05-22T05:51:17.628Z,241.89
2023-05-22T05:52:17.629Z,241.10
2023-05-22T05:53:17.631Z,241.41
2023-05-22T05:54:17.614Z,243.14
2023-05-22T05:55:17.613Z,244.92
2023-05-22T05:56:17.587Z,245.75
2023-05-22T05:57:17.596Z,245.26
2023-05-22T05:58:17.606Z,246.26
2023-05-22T05:59:17.563Z,246.58
2023-05-22T06:00:17.580Z,248.04
2023-05-22T06:01:17.552Z,248.47
2023-05-22T06:02:17.600Z,250.00
2023-05-22T06:03:17.665Z,248.96
2023-05-22T06:04:17.556Z,246.87
2023-05-22T06:05:17.575Z,248.72
2023-05-22T06:06:17.563Z,247.22
2023-05-22T06:07:17.559Z,249.91
2023-05-22T06:08:17.536Z,246.47
2023-05-22T06:09:17.534Z,248.05
2023-05-22T06:10:17.508Z,246.71
2023-05-22T06:11:17.504Z,247.92
2023-05-22T06:12:17.488Z,249.69
2023-05-22T06:13:17.472Z,248.84
2023-05-22T06:14:17.478Z,247.43
2023-05-22T06:15:17.477Z,249.44
2023-05-22T06:16:17.537Z,249.13
2023-05-22T06:17:17.467Z,249.52
2023-05-22T06:18:17.489Z,247.72
2023-05-22T06:19:17.464Z,245.79
2023-05-22T06:20:17.453Z,246.07
2023-05-22T06:21:17.425Z,246.64
2023-05-22T06:22:17.422Z,246.74
2023-05-22T06:23:17.503Z,242.00
2023-05-22T06:24:17.418Z,244.82
2023-05-22T06:25:17.405Z,243.27
2023-05-22T06:26:17.382Z,243.63
2023-05-22T06:27:17.387Z,243.18
2023-05-22T06:28:17.382Z,243.98
2023-05-22T06:29:17.511Z,242.51
2023-05-22T06:30:28.171Z,242.14
2023-05-22T06:31:18.391Z,242.20
2023-05-22T06:32:17.429Z,237.41
2023-05-22T06:33:17.398Z,233.71
2023-05-22T06:34:17.371Z,229.48
2023-05-22T06:35:17.345Z,229.08
2023-05-22T06:36:17.326Z,206.22
2023-05-22T06:37:17.327Z,220.27
2023-05-22T06:38:17.335Z,226.32
2023-05-22T06:39:17.305Z,228.56
2023-05-22T06:40:17.303Z,228.49
2023-05-22T06:41:17.387Z,228.32
2023-05-22T06:42:17.416Z,226.62
2023-05-22T06:43:17.467Z,218.12
2023-05-22T06:44:17.544Z,214.31
2023-05-22T06:45:17.699Z,214.09
2023-05-22T06:46:17.704Z,220.19
2023-05-22T06:47:17.985Z,223.11
2023-05-22T06:48:17.742Z,226.10
2023-05-22T06:49:17.794Z,226.71
2023-05-22T06:50:17.816Z,228.43
2023-05-22T06:51:17.950Z,198.93
2023-05-22T06:52:17.928Z,180.87
2023-05-22T06:53:17.997Z,164.92
2023-05-22T06:54:18.039Z,151.07
2023-05-22T06:55:18.083Z,133.79
2023-05-22T06:56:18.106Z,119.30
2023-05-22T06:57:18.112Z,107.44
2023-05-22T06:58:18.122Z,109.00
2023-05-22T06:59:18.135Z,105.58
2023-05-22T07:00:20.186Z,104.79
2023-05-22T07:01:18.192Z,104.62
2023-05-22T07:02:18.128Z,103.84
2023-05-22T07:03:18.119Z,102.69
2023-05-22T07:04:18.099Z,105.79
2023-05-22T07:05:18.150Z,104.38
2023-05-22T07:06:18.326Z,101.50
2023-05-22T07:07:18.098Z,96.30
2023-05-22T07:08:18.068Z,91.99
2023-05-22T07:09:18.068Z,93.12
2023-05-22T07:10:18.080Z,92.71
2023-05-22T07:11:18.056Z,93.30
2023-05-22T07:12:18.057Z,92.41
2023-05-22T07:13:18.037Z,97.90
2023-05-22T07:14:18.057Z,96.29
2023-05-22T07:15:18.034Z,94.31
2023-05-22T07:16:18.062Z,91.87
2023-05-22T07:17:18.582Z,87.67
2023-05-22T07:18:18.015Z,85.57
2023-05-22T07:19:18.057Z,93.67
2023-05-22T07:20:18.004Z,93.13
2023-05-22T07:21:17.975Z,89.73
2023-05-22T07:22:18.040Z,93.21
2023-05-22T07:23:17.973Z,89.52
2023-05-22T07:24:17.987Z,86.33
2023-05-22T07:25:17.955Z,83.18
2023-05-22T07:26:17.969Z,99.33
2023-05-22T07:27:17.987Z,97.30
2023-05-22T07:28:17.957Z,99.96
2023-05-22T07:29:17.938Z,109.27
2023-05-22T07:30:17.944Z,101.98
2023-05-22T07:31:17.955Z,107.81
2023-05-22T07:32:17.913Z,133.85
2023-05-22T07:33:18.010Z,147.20
2023-05-22T07:34:17.913Z,156.42
2023-05-22T07:35:17.908Z,167.78
2023-05-22T07:36:17.897Z,175.05
2023-05-22T07:37:17.883Z,182.74
2023-05-22T07:38:18.007Z,190.60
2023-05-22T07:39:17.870Z,196.02
2023-05-22T07:40:17.883Z,201.27
2023-05-22T07:41:17.886Z,204.76
2023-05-22T07:42:17.904Z,207.12
2023-05-22T07:43:17.998Z,208.42
2023-05-22T07:44:17.847Z,211.51
2023-05-22T07:45:17.848Z,212.63
2023-05-22T07:46:17.902Z,213.86
2023-05-22T07:47:17.828Z,216.36
2023-05-22T07:48:18.055Z,217.95
2023-05-22T07:49:17.867Z,217.50
2023-05-22T07:50:17.812Z,217.59
2023-05-22T07:51:17.797Z,217.85
2023-05-22T07:52:17.809Z,217.81
2023-05-22T07:53:17.808Z,217.73
2023-05-22T07:54:18.022Z,218.31
2023-05-22T07:55:17.781Z,218.22
2023-05-22T07:56:17.804Z,218.34
2023-05-22T07:57:17.763Z,217.70
2023-05-22T07:58:18.027Z,217.12
2023-05-22T07:59:17.795Z,219.12
2023-05-22T08:00:18.019Z,219.67
2023-05-22T08:01:17.757Z,220.58
2023-05-22T08:02:17.792Z,222.40
2023-05-22T08:03:18.151Z,222.84
2023-05-22T08:04:17.838Z,222.83
2023-05-22T08:05:18.065Z,222.81
2023-05-22T08:06:17.715Z,223.08
2023-05-22T08:07:17.711Z,222.06
2023-05-22T08:08:17.694Z,222.13
2023-05-22T08:09:17.695Z,219.18
2023-05-22T08:10:17.690Z,215.21
2023-05-22T08:11:17.692Z,214.47
2023-05-22T08:12:17.737Z,213.58
2023-05-22T08:13:17.828Z,213.36
2023-05-22T08:14:17.855Z,213.03
2023-05-22T08:15:17.860Z,212.07
2023-05-22T08:16:17.890Z,211.26
2023-05-22T08:17:17.982Z,209.99
2023-05-22T08:18:18.037Z,209.99
2023-05-22T08:19:18.141Z,209.33
2023-05-22T08:20:18.179Z,208.74
2023-05-22T08:21:18.187Z,204.19
2023-05-22T08:22:18.230Z,200.35
2023-05-22T08:23:18.536Z,197.53
2023-05-22T08:24:18.308Z,196.84
2023-05-22T08:25:18.327Z,194.36
2023-05-22T08:26:18.364Z,173.51
2023-05-22T08:27:18.417Z,130.98
2023-05-22T08:28:18.477Z,122.20
2023-05-22T08:29:18.480Z,109.12
2023-05-22T08:30:18.524Z,114.76
2023-05-22T08:31:18.556Z,106.53
2023-05-22T08:32:18.526Z,108.77
2023-05-22T08:33:18.560Z,113.35
2023-05-22T08:34:19.024Z,86.75
2023-05-22T08:35:18.543Z,92.81
2023-05-22T08:36:18.600Z,85.16
2023-05-22T08:37:18.543Z,76.55
2023-05-22T08:38:18.550Z,71.65
2023-05-22T08:39:19.081Z,75.39
2023-05-22T08:40:18.582Z,50.32
2023-05-22T08:41:18.632Z,36.28
2023-05-22T08:42:18.712Z,38.04
2023-05-22T08:43:18.753Z,48.62
2023-05-22T08:44:18.831Z,29.06
2023-05-22T08:45:18.873Z,25.51
2023-05-22T08:46:18.950Z,25.23
2023-05-22T08:47:19.196Z,22.54
2023-05-22T08:48:19.068Z,15.96
2023-05-22T08:49:19.875Z,25.00
2023-05-22T08:50:19.048Z,24.42
2023-05-22T08:51:19.093Z,24.26
2023-05-22T08:52:19.132Z,28.19
2023-05-22T08:53:19.232Z,26.12
2023-05-22T08:54:19.191Z,25.00
2023-05-22T08:55:19.208Z,28.97
2023-05-22T08:56:19.217Z,37.65
2023-05-22T08:57:19.269Z,48.40
2023-05-22T08:58:19.276Z,65.15
2023-05-22T08:59:19.544Z,48.30
2023-05-22T09:00:19.344Z,44.06
2023-05-22T09:01:19.385Z,41.08
2023-05-22T09:02:19.351Z,33.45
2023-05-22T09:03:19.385Z,25.00
2023-05-22T09:04:19.369Z,20.75
2023-05-22T09:05:19.399Z,22.00
2023-05-22T09:06:19.384Z,14.59
2023-05-22T09:07:19.395Z,23.13
2023-05-22T09:08:21.230Z,25.76
2023-05-22T09:09:19.464Z,25.00
2023-05-22T09:10:19.415Z,27.16
2023-05-22T09:11:19.427Z,31.36
2023-05-22T09:12:19.420Z,35.26
2023-05-22T09:13:19.429Z,30.53
2023-05-22T09:14:19.438Z,34.01
2023-05-22T09:15:19.472Z,43.34
2023-05-22T09:16:19.507Z,33.04
2023-05-22T09:17:19.463Z,29.12
2023-05-22T09:18:19.548Z,25.00
2023-05-22T09:19:19.526Z,19.55
2023-05-22T09:20:19.459Z,18.58
2023-05-22T09:21:29.723Z,23.04
2023-05-22T09:22:21.773Z,23.25
2023-05-22T09:23:19.425Z,23.30
2023-05-22T09:24:19.432Z,23.18
2023-05-22T09:25:19.449Z,23.63
2023-05-22T09:26:19.425Z,30.06
2023-05-22T09:27:19.404Z,46.96
2023-05-22T09:28:19.420Z,33.17
2023-05-22T09:29:19.401Z,27.81
2023-05-22T09:30:19.408Z,25.22
2023-05-22T09:31:19.482Z,22.41
2023-05-22T09:32:19.379Z,28.49
2023-05-22T09:33:19.559Z,29.56
2023-05-22T09:34:19.361Z,27.38
2023-05-22T09:35:19.370Z,22.83
2023-05-22T09:36:19.357Z,21.47
2023-05-22T09:37:19.330Z,20.49
2023-05-22T09:38:19.581Z,25.53
2023-05-22T09:39:19.324Z,23.36
2023-05-22T09:40:19.321Z,38.23
2023-05-22T09:41:19.313Z,47.35
2023-05-22T09:42:19.320Z,56.39
2023-05-22T09:43:19.305Z,65.57
2023-05-22T09:44:19.284Z,75.51
2023-05-22T09:45:19.273Z,66.79
2023-05-22T09:46:19.323Z,62.80
2023-05-22T09:47:19.301Z,55.61
2023-05-22T09:48:19.558Z,42.66
2023-05-22T09:49:19.282Z,40.29
2023-05-22T09:50:19.275Z,42.61
2023-05-22T09:51:19.256Z,30.95
2023-05-22T09:52:19.239Z,24.04
2023-05-22T09:53:19.222Z,25.20
2023-05-22T09:54:19.221Z,26.25
2023-05-22T09:55:19.219Z,23.55
2023-05-22T09:56:27.225Z,25.62
2023-05-22T09:57:20.216Z,25.77
2023-05-22T09:58:19.197Z,25.62
2023-05-22T09:59:19.190Z,27.62
2023-05-22T10:00:19.194Z,31.57
2023-05-22T10:01:19.242Z,29.05
2023-05-22T10:02:19.171Z,24.94
2023-05-22T10:03:19.554Z,27.51
2023-05-22T10:04:19.220Z,27.34
2023-05-22T10:05:19.164Z,24.59
2023-05-22T10:06:19.175Z,25.22
2023-05-22T10:07:19.209Z,24.73
2023-05-22T10:08:19.260Z,26.10
2023-05-22T10:09:19.785Z,28.15
2023-05-22T10:10:19.327Z,32.98
2023-05-22T10:11:19.391Z,41.84
2023-05-22T10:12:19.447Z,55.57
2023-05-22T10:13:19.591Z,61.02
2023-05-22T10:14:19.537Z,63.99
2023-05-22T10:15:19.607Z,59.81
2023-05-22T10:16:19.691Z,43.56
2023-05-22T10:17:19.733Z,34.28
2023-05-22T10:18:19.778Z,34.98
2023-05-22T10:19:20.096Z,29.34
2023-05-22T10:20:19.887Z,26.12
2023-05-22T10:21:19.930Z,31.61
2023-05-22T10:22:19.960Z,26.80
2023-05-22T10:23:20.063Z,25.01
2023-05-22T10:24:20.068Z,23.68
2023-05-22T10:25:20.121Z,21.17
2023-05-22T10:26:20.167Z,20.56
2023-05-22T10:27:20.200Z,26.65
2023-05-22T10:28:20.251Z,44.44
2023-05-22T10:29:20.669Z,64.02
2023-05-22T10:30:20.343Z,86.90
2023-05-22T10:31:20.326Z,103.85
2023-05-22T10:32:20.345Z,105.85
2023-05-22T10:33:20.705Z,119.69
2023-05-22T10:34:20.348Z,113.38
2023-05-22T10:35:20.351Z,95.69
2023-05-22T10:36:20.369Z,73.86
2023-05-22T10:37:20.899Z,65.39
2023-05-22T10:38:20.342Z,59.92
2023-05-22T10:39:20.354Z,43.07
2023-05-22T10:40:20.466Z,29.26
2023-05-22T10:41:20.381Z,24.44
2023-05-22T10:42:20.404Z,25.06
2023-05-22T10:43:20.463Z,20.91
2023-05-22T10:44:20.506Z,22.96
2023-05-22T10:45:20.669Z,25.00
2023-05-22T10:46:20.714Z,26.85
2023-05-22T10:47:20.674Z,28.07
2023-05-22T10:48:20.692Z,29.56
2023-05-22T10:49:20.705Z,47.53
2023-05-22T10:50:20.699Z,91.33
2023-05-22T10:51:20.690Z,110.13
2023-05-22T10:52:20.714Z,101.42
2023-05-22T10:53:20.741Z,104.55
2023-05-22T10:54:20.748Z,83.15
2023-05-22T10:55:20.734Z,79.29
2023-05-22T10:56:23.611Z,67.72
2023-05-22T10:57:20.757Z,67.95
2023-05-22T10:58:20.755Z,67.96
2023-05-22T10:59:20.742Z,46.55
2023-05-22T11:00:20.754Z,36.17
2023-05-22T11:01:20.840Z,33.49
2023-05-22T11:02:20.819Z,30.96
2023-05-22T11:03:21.196Z,59.01
2023-05-22T11:04:20.809Z,42.11
2023-05-22T11:05:20.726Z,58.32
2023-05-22T11:06:20.691Z,83.73
2023-05-22T11:07:20.672Z,97.30
2023-05-22T11:08:20.680Z,115.30
2023-05-22T11:09:20.685Z,132.89
2023-05-22T11:10:20.670Z,140.02
2023-05-22T11:11:20.645Z,153.20
2023-05-22T11:12:20.710Z,151.52
2023-05-22T11:13:21.113Z,163.66
2023-05-22T11:14:20.623Z,176.98
2023-05-22T11:15:20.631Z,185.87
2023-05-22T11:16:20.645Z,187.83
2023-05-22T11:17:20.685Z,184.84
2023-05-22T11:18:21.135Z,184.20
2023-05-22T11:19:23.817Z,184.92
2023-05-22T11:20:20.635Z,188.69
2023-05-22T11:21:20.594Z,188.62
2023-05-22T11:22:20.594Z,192.02
2023-05-22T11:23:20.572Z,193.89
2023-05-22T11:24:20.583Z,196.78
2023-05-22T11:25:20.573Z,198.22
2023-05-22T11:26:20.566Z,199.47
2023-05-22T11:27:20.546Z,201.62
2023-05-22T11:28:20.576Z,203.16
2023-05-22T11:29:20.536Z,204.91
2023-05-22T11:30:20.514Z,205.87
2023-05-22T11:31:20.566Z,206.48
2023-05-22T11:32:20.535Z,206.91
2023-05-22T11:33:20.759Z,208.15
2023-05-22T11:34:20.523Z,208.70
2023-05-22T11:35:20.487Z,209.02
2023-05-22T11:36:20.481Z,209.69
2023-05-22T11:37:20.504Z,209.92
2023-05-22T11:38:20.508Z,211.03
2023-05-22T11:39:20.479Z,212.01
2023-05-22T11:40:20.475Z,211.40
2023-05-22T11:41:20.468Z,212.49
2023-05-22T11:42:20.476Z,211.77
2023-05-22T11:43:20.460Z,211.45
2023-05-22T11:44:20.441Z,211.36
2023-05-22T11:45:20.447Z,211.41
2023-05-22T11:46:20.470Z,211.36
2023-05-22T11:47:20.419Z,210.48
2023-05-22T11:48:20.422Z,210.21
2023-05-22T11:49:20.548Z,210.46
2023-05-22T11:50:33.177Z,210.63
2023-05-22T11:51:21.516Z,210.65
2023-05-22T11:52:20.521Z,209.92
2023-05-22T11:53:20.508Z,208.98
2023-05-22T11:54:20.486Z,209.97
2023-05-22T11:55:20.482Z,209.07
2023-05-22T11:56:20.488Z,209.79
2023-05-22T11:57:20.473Z,209.74
2023-05-22T11:58:20.454Z,206.86
2023-05-22T11:59:20.444Z,206.16
2023-05-22T12:00:20.493Z,205.87
2023-05-22T12:01:20.437Z,206.66
2023-05-22T12:02:20.442Z,207.15
2023-05-22T12:03:20.677Z,206.35
2023-05-22T12:04:20.515Z,206.18
2023-05-22T12:05:20.501Z,204.91
2023-05-22T12:06:20.452Z,205.66
2023-05-22T12:07:20.396Z,205.90
2023-05-22T12:08:20.609Z,206.48
2023-05-22T12:09:20.404Z,206.50
2023-05-22T12:10:20.376Z,204.35
2023-05-22T12:11:20.377Z,203.53
2023-05-22T12:12:22.340Z,202.90
2023-05-22T12:13:20.382Z,202.43
2023-05-22T12:14:20.356Z,202.47
2023-05-22T12:15:20.361Z,202.54
2023-05-22T12:16:20.423Z,202.08
2023-05-22T12:17:20.337Z,201.62
2023-05-22T12:18:20.325Z,201.41
2023-05-22T12:19:20.338Z,201.13
2023-05-22T12:20:20.332Z,199.65
2023-05-22T12:21:20.400Z,199.45
2023-05-22T12:22:22.593Z,199.62
2023-05-22T12:23:20.311Z,198.92
2023-05-22T12:24:20.299Z,197.70
2023-05-22T12:25:20.520Z,198.11
2023-05-22T12:26:20.287Z,196.83
2023-05-22T12:27:20.294Z,193.74
2023-05-22T12:28:20.275Z,195.13
2023-05-22T12:29:20.264Z,196.43
2023-05-22T12:30:20.252Z,194.67
2023-05-22T12:31:20.243Z,194.51
2023-05-22T12:32:20.309Z,194.88
2023-05-22T12:33:20.295Z,193.91